createdAt,value
2023-03-06T00:01:19.811Z,96754.28
2023-03-06T00:03:49.460Z,96759.63
2023-03-06T00:06:17.778Z,96762.22
2023-03-06T00:08:46.246Z,96763.69
2023-03-06T00:11:15.609Z,96763.72
2023-03-06T00:13:43.860Z,96764.63
2023-03-06T00:16:12.340Z,96759.63
2023-03-06T00:18:40.625Z,96750.19
2023-03-06T00:21:10.860Z,96754.41
2023-03-06T00:23:39.358Z,96750.91
2023-03-06T00:26:08.556Z,96747.59
2023-03-06T00:28:37.718Z,96744.22
2023-03-06T00:31:06.474Z,96745.94
2023-03-06T00:33:36.136Z,96747.63
2023-03-06T00:36:06.213Z,96743.25
2023-03-06T00:38:37.363Z,96738.28
2023-03-06T00:41:10.354Z,96733.72
2023-03-06T00:43:38.715Z,96740.63
2023-03-06T00:46:09.580Z,96732.94
2023-03-06T00:48:37.874Z,96738.81
2023-03-06T00:51:07.140Z,96729.44
2023-03-06T00:53:36.945Z,96740.50
2023-03-06T00:56:05.604Z,96732.03
2023-03-06T00:58:33.857Z,96737.09
2023-03-06T01:01:02.204Z,96733.63
2023-03-06T01:03:30.514Z,96735.38
2023-03-06T01:05:59.270Z,96731.03
2023-03-06T01:08:28.136Z,96723.41
2023-03-06T01:10:59.403Z,96716.56
2023-03-06T01:13:27.768Z,96708.06
2023-03-06T01:15:58.376Z,96714.78
2023-03-06T01:18:26.620Z,96708.81
2023-03-06T01:20:54.879Z,96702.09
2023-03-06T01:23:23.138Z,96703.78
2023-03-06T01:25:51.397Z,96707.25
2023-03-06T01:28:23.064Z,96696.09
2023-03-06T01:30:51.410Z,96696.97
2023-03-06T01:33:20.068Z,96704.66
2023-03-06T01:35:48.523Z,96692.72
2023-03-06T01:38:16.960Z,96697.81
2023-03-06T01:40:45.262Z,96692.00
2023-03-06T01:43:28.666Z,96694.44
2023-03-06T01:46:30.930Z,96691.78
2023-03-06T01:49:01.582Z,96681.63
2023-03-06T01:51:32.767Z,96685.19
2023-03-06T01:54:03.744Z,96681.78
2023-03-06T01:56:32.140Z,96679.19
2023-03-06T01:59:01.946Z,96669.97
2023-03-06T02:01:31.208Z,96660.72
2023-03-06T02:04:01.075Z,96655.75
2023-03-06T02:06:30.852Z,96656.41
2023-03-06T02:08:59.126Z,96647.03
2023-03-06T02:11:27.514Z,96647.97
2023-03-06T02:13:56.082Z,96647.84
2023-03-06T02:16:28.262Z,96647.91
2023-03-06T02:18:56.817Z,96640.31
2023-03-06T02:21:27.323Z,96636.03
2023-03-06T02:24:08.823Z,96629.97
2023-03-06T02:26:39.331Z,96633.38
2023-03-06T02:29:09.079Z,96619.00
2023-03-06T02:31:37.465Z,96635.91
2023-03-06T02:34:09.418Z,96618.22
2023-03-06T02:36:40.087Z,96619.78
2023-03-06T02:39:09.476Z,96617.19
2023-03-06T02:41:40.349Z,96619.78
2023-03-06T02:44:09.914Z,96620.66
2023-03-06T02:46:38.300Z,96614.00
2023-03-06T02:49:06.583Z,96622.59
2023-03-06T02:51:34.938Z,96632.59
2023-03-06T02:54:03.398Z,96624.06
2023-03-06T02:56:31.792Z,96628.34
2023-03-06T02:59:01.525Z,96633.34
2023-03-06T03:01:30.815Z,96618.94
2023-03-06T03:03:59.125Z,96622.41
2023-03-06T03:06:27.489Z,96629.06
2023-03-06T03:08:55.949Z,96624.09
2023-03-06T03:11:24.635Z,96622.31
2023-03-06T03:13:53.318Z,96621.41
2023-03-06T03:16:26.456Z,96620.66
2023-03-06T03:18:58.045Z,96620.66
2023-03-06T03:21:27.703Z,96619.69
2023-03-06T03:23:57.084Z,96614.41
2023-03-06T03:26:29.446Z,96608.69
2023-03-06T03:29:12.053Z,96604.31
2023-03-06T03:31:41.777Z,96598.47
2023-03-06T03:34:10.378Z,96604.44
2023-03-06T03:36:41.167Z,96596.88
2023-03-06T03:39:11.411Z,96596.06
2023-03-06T03:41:39.866Z,96601.09
2023-03-06T03:44:09.866Z,96593.41
2023-03-06T03:46:38.431Z,96595.16
2023-03-06T03:49:13.211Z,96589.94
2023-03-06T03:51:41.598Z,96587.34
2023-03-06T03:54:10.354Z,96586.44
2023-03-06T03:56:44.576Z,96584.03
2023-03-06T03:59:23.006Z,96589.84
2023-03-06T04:02:14.927Z,96585.69
2023-03-06T04:04:56.282Z,96577.22
2023-03-06T04:07:24.851Z,96578.94
2023-03-06T04:09:53.213Z,96576.53
2023-03-06T04:12:21.903Z,96572.19
2023-03-06T04:14:50.224Z,96572.22
2023-03-06T04:17:19.237Z,96564.47
2023-03-06T04:19:47.547Z,96576.28
2023-03-06T04:22:17.372Z,96572.03
2023-03-06T04:24:48.955Z,96567.72
2023-03-06T04:27:18.684Z,96572.88
2023-03-06T04:29:47.259Z,96558.34
2023-03-06T04:32:16.078Z,96558.47
2023-03-06T04:34:44.349Z,96557.69
2023-03-06T04:37:15.456Z,96564.44
2023-03-06T04:39:45.196Z,96561.88
2023-03-06T04:42:13.662Z,96556.75
2023-03-06T04:44:42.110Z,96556.63
2023-03-06T04:47:10.550Z,96550.78
2023-03-06T04:49:40.058Z,96550.81
2023-03-06T04:52:09.014Z,96553.28
2023-03-06T04:54:37.495Z,96559.19
2023-03-06T04:57:07.278Z,96554.13
2023-03-06T04:59:38.098Z,96547.38
2023-03-06T05:02:07.874Z,96555.03
2023-03-06T05:04:36.136Z,96546.56
2023-03-06T05:07:04.491Z,96549.16
2023-03-06T05:09:32.807Z,96548.28
2023-03-06T05:12:01.080Z,96543.13
2023-03-06T05:14:32.365Z,96539.69
2023-03-06T05:17:00.723Z,96538.03
2023-03-06T05:19:28.991Z,96529.50
2023-03-06T05:21:57.339Z,96540.56
2023-03-06T05:24:25.738Z,96537.19
2023-03-06T05:26:54.044Z,96533.72
2023-03-06T05:29:22.574Z,96538.78
2023-03-06T05:31:52.298Z,96534.56
2023-03-06T05:34:20.733Z,96525.25
2023-03-06T05:36:49.020Z,96526.91
2023-03-06T05:39:17.404Z,96534.56
2023-03-06T05:41:45.776Z,96521.97
2023-03-06T05:44:14.117Z,96521.94
2023-03-06T05:46:42.437Z,96520.25
2023-03-06T05:49:12.171Z,96525.34
2023-03-06T05:51:40.532Z,96530.38
2023-03-06T05:54:09.151Z,96516.75
2023-03-06T05:56:37.699Z,96516.78
2023-03-06T05:59:09.756Z,96518.59
2023-03-06T06:01:38.251Z,96516.88
2023-03-06T06:04:06.956Z,96515.22
2023-03-06T06:06:36.669Z,96516.88
2023-03-06T06:09:05.327Z,96520.38
2023-03-06T06:11:33.764Z,96521.31
2023-03-06T06:14:02.958Z,96523.13
2023-03-06T06:16:31.790Z,96511.91
2023-03-06T06:19:03.306Z,96511.06
2023-03-06T06:21:31.626Z,96515.47
2023-03-06T06:24:01.468Z,96507.88
2023-03-06T06:26:29.999Z,96517.31
2023-03-06T06:29:00.113Z,96521.63
2023-03-06T06:31:29.101Z,96516.47
2023-03-06T06:33:57.716Z,96519.97
2023-03-06T06:36:26.049Z,96520.06
2023-03-06T06:38:56.153Z,96520.91
2023-03-06T06:41:46.150Z,96524.44
2023-03-06T06:44:17.320Z,96528.47
2023-03-06T06:49:37.903Z,96529.50
2023-03-06T06:52:07.230Z,96533.03
2023-03-06T06:54:36.093Z,96534.72
2023-03-06T06:57:06.248Z,96531.28
2023-03-06T06:59:34.912Z,96523.66
2023-03-06T07:02:03.734Z,96516.81
2023-03-06T07:04:32.148Z,96523.69
2023-03-06T07:07:07.790Z,96518.69
2023-03-06T07:09:37.145Z,96516.97
2023-03-06T07:12:07.726Z,96509.38
2023-03-06T07:14:38.216Z,96517.06
2023-03-06T07:17:06.687Z,96510.31
2023-03-06T07:19:35.265Z,96506.13
2023-03-06T07:22:04.775Z,96512.00
2023-03-06T07:24:33.148Z,96512.06
2023-03-06T07:27:01.568Z,96518.13
2023-03-06T07:29:33.115Z,96513.03
2023-03-06T07:32:01.788Z,96512.19
2023-03-06T07:34:30.419Z,96520.72
2023-03-06T07:36:58.875Z,96519.00
2023-03-06T07:39:28.325Z,96522.41
2023-03-06T07:41:56.928Z,96510.44
2023-03-06T07:44:32.072Z,96513.13
2023-03-06T07:47:05.165Z,96509.81
2023-03-06T07:49:34.501Z,96509.88
2023-03-06T07:52:06.153Z,96500.44
2023-03-06T07:54:38.302Z,96498.81
2023-03-06T07:57:09.284Z,96508.22
2023-03-06T07:59:39.945Z,96504.81
2023-03-06T08:02:14.829Z,96498.78
2023-03-06T08:04:43.369Z,96503.94
2023-03-06T08:07:13.219Z,96495.44
2023-03-06T08:09:41.997Z,96506.56
2023-03-06T08:12:10.676Z,96494.59
2023-03-06T08:14:38.948Z,96495.44
2023-03-06T08:17:07.553Z,96485.22
2023-03-06T08:19:37.389Z,96486.91
2023-03-06T08:22:06.203Z,96480.88
2023-03-06T08:24:35.151Z,96478.34
2023-03-06T08:27:03.500Z,96479.16
2023-03-06T08:29:32.429Z,96473.13
2023-03-06T08:32:00.750Z,96478.28
2023-03-06T08:34:29.184Z,96477.34
2023-03-06T08:37:01.425Z,96474.75
2023-03-06T08:39:29.731Z,96472.19
2023-03-06T08:41:58.127Z,96473.19
2023-03-06T08:44:26.475Z,96480.06
2023-03-06T08:46:54.896Z,96470.59
2023-03-06T08:49:23.277Z,96464.50
2023-03-06T08:51:51.668Z,96462.41
2023-03-06T08:54:21.593Z,96458.16
2023-03-06T08:56:50.910Z,96462.47
2023-03-06T08:59:19.298Z,96463.28
2023-03-06T09:01:49.169Z,96461.53
2023-03-06T09:04:17.659Z,96458.84
2023-03-06T09:06:46.478Z,96463.06
2023-03-06T09:09:15.121Z,96459.03
2023-03-06T09:11:44.976Z,96456.53
2023-03-06T09:14:13.855Z,96452.84
2023-03-06T09:16:42.363Z,96452.59
2023-03-06T09:19:11.028Z,96448.84
2023-03-06T09:21:39.556Z,96457.28
2023-03-06T09:24:08.757Z,96452.06
2023-03-06T09:26:45.687Z,96457.28
2023-03-06T09:29:17.646Z,96449.91
2023-03-06T09:31:46.281Z,96450.13
2023-03-06T09:34:14.888Z,96443.25
2023-03-06T09:36:56.825Z,96440.41
2023-03-06T09:39:27.340Z,96441.84
2023-03-06T09:41:57.370Z,96440.00
2023-03-06T09:44:29.161Z,96435.63
2023-03-06T09:47:37.110Z,96429.44
2023-03-06T09:50:13.580Z,96432.06
2023-03-06T09:52:47.292Z,96428.50
2023-03-06T09:55:19.116Z,96428.69
2023-03-06T09:57:55.091Z,96434.09
2023-03-06T10:00:29.648Z,96431.03
2023-03-06T10:03:05.941Z,96428.50
2023-03-06T10:05:37.936Z,96428.78
2023-03-06T10:08:12.698Z,96411.69
2023-03-06T10:10:45.808Z,96412.47
2023-03-06T10:13:20.969Z,96421.97
2023-03-06T10:15:56.449Z,96414.31
2023-03-06T10:18:27.736Z,96409.47
2023-03-06T10:21:13.427Z,96403.97
2023-03-06T10:23:53.828Z,96402.34
2023-03-06T10:26:25.782Z,96413.72
2023-03-06T10:29:01.785Z,96403.06
2023-03-06T10:31:33.720Z,96399.00
2023-03-06T10:34:15.908Z,96397.31
2023-03-06T10:36:44.329Z,96395.78
2023-03-06T10:39:17.678Z,96397.41
2023-03-06T10:41:46.900Z,96391.59
2023-03-06T10:44:25.334Z,96394.94
2023-03-06T10:46:56.433Z,96394.13
2023-03-06T10:49:29.103Z,96376.78
2023-03-06T10:51:59.791Z,96375.84
2023-03-06T10:54:29.266Z,96368.94
2023-03-06T10:56:58.154Z,96362.66
2023-03-06T10:59:28.509Z,96363.69
2023-03-06T11:01:59.598Z,96355.63
2023-03-06T11:04:30.438Z,96352.38
2023-03-06T11:07:14.100Z,96357.41
2023-03-06T11:09:44.493Z,96356.16
2023-03-06T11:12:28.612Z,96354.47
2023-03-06T11:15:11.215Z,96346.06
2023-03-06T11:17:51.252Z,96337.19
2023-03-06T11:20:21.363Z,96341.03
2023-03-06T11:22:54.884Z,96337.19
2023-03-06T11:25:25.134Z,96336.59
2023-03-06T11:28:00.630Z,96335.44
2023-03-06T11:30:35.022Z,96326.78
2023-03-06T11:33:10.291Z,96319.94
2023-03-06T11:35:51.476Z,96313.56
2023-03-06T11:38:24.556Z,96316.50
2023-03-06T11:40:55.775Z,96306.22
2023-03-06T11:43:29.280Z,96305.22
2023-03-06T11:46:02.826Z,96306.59
2023-03-06T11:48:38.964Z,96300.44
2023-03-06T11:51:13.853Z,96306.56
2023-03-06T11:53:43.113Z,96291.81
2023-03-06T11:56:27.769Z,96291.16
2023-03-06T12:03:58.157Z,96284.75
2023-03-06T12:06:35.552Z,96281.06
2023-03-06T12:09:19.296Z,96284.69
2023-03-06T12:11:52.024Z,96287.28
2023-03-06T12:14:32.283Z,96283.28
2023-03-06T12:20:25.088Z,96282.19
2023-03-06T12:23:02.392Z,96276.16
2023-03-06T12:25:37.506Z,96272.63
2023-03-06T12:28:20.288Z,96264.56
2023-03-06T12:31:03.108Z,96269.38
2023-03-06T12:33:40.934Z,96254.56
2023-03-06T12:36:31.528Z,96263.59
2023-03-06T12:39:11.762Z,96265.19
2023-03-06T12:41:51.664Z,96265.38
2023-03-06T12:44:42.427Z,96271.47
2023-03-06T12:47:12.485Z,96264.59
2023-03-06T12:49:43.660Z,96263.28
2023-03-06T12:52:29.701Z,96258.38
2023-03-06T12:54:58.883Z,96257.13
2023-03-06T12:57:27.490Z,96255.31
2023-03-06T12:59:56.453Z,96266.47
2023-03-06T13:02:50.282Z,96258.81
2023-03-06T13:05:40.847Z,96253.50
2023-03-06T13:08:24.862Z,96259.50
2023-03-06T13:11:12.666Z,96252.66
2023-03-06T13:13:44.421Z,96254.09
2023-03-06T13:16:15.272Z,96245.13
2023-03-06T13:18:54.469Z,96250.00
2023-03-06T13:21:48.338Z,96245.00
2023-03-06T13:24:23.438Z,96256.22
2023-03-06T13:27:00.223Z,96247.63
2023-03-06T13:30:05.227Z,96254.56
2023-03-06T13:32:35.787Z,96244.75
2023-03-06T13:35:48.968Z,96243.53
2023-03-06T13:38:56.297Z,96241.66
2023-03-06T13:41:45.733Z,96244.16
2023-03-06T13:44:51.102Z,96242.25
2023-03-06T13:48:06.408Z,96247.44
2023-03-06T13:50:41.558Z,96242.88
2023-03-06T13:53:43.106Z,96234.28
2023-03-06T13:56:38.568Z,96239.50
2023-03-06T13:59:26.399Z,96223.19
2023-03-06T14:02:03.822Z,96226.84
2023-03-06T14:04:38.679Z,96225.06
2023-03-06T14:07:22.575Z,96226.44
2023-03-06T14:10:00.203Z,96226.59
2023-03-06T14:12:33.056Z,96232.41
2023-03-06T14:15:12.510Z,96225.59
2023-03-06T14:17:50.004Z,96229.13
2023-03-06T14:20:20.169Z,96227.34
2023-03-06T14:22:49.918Z,96231.47
2023-03-06T14:25:31.541Z,96226.34
2023-03-06T14:28:13.745Z,96225.69
2023-03-06T14:30:54.346Z,96228.19
2023-03-06T14:33:31.043Z,96222.16
2023-03-06T14:36:02.760Z,96231.03
2023-03-06T14:38:34.191Z,96224.56
2023-03-06T14:41:03.134Z,96218.16
2023-03-06T14:43:32.526Z,96223.88
2023-03-06T14:46:04.306Z,96224.75
2023-03-06T14:48:41.955Z,96229.91
2023-03-06T14:51:17.687Z,96217.88
2023-03-06T14:53:48.367Z,96221.50
2023-03-06T14:56:19.756Z,96223.75
2023-03-06T14:58:53.946Z,96218.81
2023-03-06T15:01:32.661Z,96230.22
2023-03-06T15:04:02.111Z,96226.06
2023-03-06T15:06:34.581Z,96227.72
2023-03-06T15:09:07.829Z,96224.25
2023-03-06T15:11:53.873Z,96227.75
2023-03-06T15:14:28.747Z,96229.50
2023-03-06T15:17:16.612Z,96227.91
2023-03-06T15:19:45.581Z,96227.13
2023-03-06T15:22:26.937Z,96227.19
2023-03-06T15:24:57.381Z,96221.06
2023-03-06T15:27:31.157Z,96220.94
2023-03-06T15:30:12.841Z,96224.34
2023-03-06T15:32:43.346Z,96225.19
2023-03-06T15:35:29.097Z,96222.66
2023-03-06T15:37:59.641Z,96220.25
2023-03-06T15:40:29.932Z,96228.91
2023-03-06T15:42:58.621Z,96233.44
2023-03-06T15:45:28.309Z,96237.84
2023-03-06T15:47:58.516Z,96231.06
2023-03-06T15:50:29.541Z,96236.19
2023-03-06T15:52:58.380Z,96239.91
2023-03-06T15:55:27.821Z,96246.03
2023-03-06T15:57:59.923Z,96244.28
2023-03-06T16:00:29.928Z,96240.88
2023-03-06T16:03:10.414Z,96238.44
2023-03-06T16:05:39.454Z,96238.50
2023-03-06T16:08:09.609Z,96242.00
2023-03-06T16:10:40.211Z,96245.47
2023-03-06T16:13:12.703Z,96242.94
2023-03-06T16:15:42.827Z,96241.22
2023-03-06T16:18:15.112Z,96242.97
2023-03-06T16:20:45.334Z,96235.31
2023-03-06T16:23:15.348Z,96233.72
2023-03-06T16:25:48.359Z,96240.41
2023-03-06T16:28:17.785Z,96242.28
2023-03-06T16:30:46.893Z,96237.19
2023-03-06T16:33:16.783Z,96239.84
2023-03-06T16:35:47.393Z,96240.78
2023-03-06T16:38:16.893Z,96239.13
2023-03-06T16:40:45.821Z,96236.63
2023-03-06T16:43:18.487Z,96239.16
2023-03-06T16:45:48.560Z,96229.72
2023-03-06T16:48:19.427Z,96233.28
2023-03-06T16:50:48.491Z,96234.25
2023-03-06T16:53:17.688Z,96241.97
2023-03-06T16:55:46.786Z,96246.25
2023-03-06T16:58:16.382Z,96245.34
2023-03-06T17:00:45.457Z,96244.59
2023-03-06T17:03:14.570Z,96247.16
2023-03-06T17:05:45.365Z,96253.06
2023-03-06T17:08:14.792Z,96249.72
2023-03-06T17:10:43.746Z,96253.94
2023-03-06T17:13:12.602Z,96262.56
2023-03-06T17:15:41.851Z,96264.28
2023-03-06T17:18:11.590Z,96266.88
2023-03-06T17:20:40.892Z,96267.75
2023-03-06T17:23:10.892Z,96272.03
2023-03-06T17:25:41.108Z,96261.69
2023-03-06T17:28:12.826Z,96269.34
2023-03-06T17:30:42.015Z,96270.22
2023-03-06T17:33:13.261Z,96266.00
2023-03-06T17:35:41.881Z,96271.97
2023-03-06T17:38:12.808Z,96274.66
2023-03-06T17:40:44.325Z,96275.63
2023-03-06T17:43:13.675Z,96279.03
2023-03-06T17:45:42.769Z,96283.28
2023-03-06T17:48:14.006Z,96287.50
2023-03-06T17:50:48.574Z,96291.84
2023-03-06T17:53:20.852Z,96295.19
2023-03-06T17:55:50.115Z,96295.97
2023-03-06T17:58:20.101Z,96291.66
2023-03-06T18:00:53.483Z,96290.97
2023-03-06T18:03:25.110Z,96293.53
2023-03-06T18:06:01.215Z,96292.69
2023-03-06T18:08:32.307Z,96291.88
2023-03-06T18:11:04.637Z,96302.19
2023-03-06T18:13:36.987Z,96292.75
2023-03-06T18:16:07.194Z,96292.72
2023-03-06T18:18:37.625Z,96298.78
2023-03-06T18:21:07.522Z,96301.34
2023-03-06T18:23:40.007Z,96305.66
2023-03-06T18:26:12.556Z,96301.41
2023-03-06T18:28:44.873Z,96292.88
2023-03-06T18:31:18.622Z,96291.13
2023-03-06T18:33:50.571Z,96285.13
2023-03-06T18:36:21.184Z,96293.66
2023-03-06T18:38:52.844Z,96284.34
2023-03-06T18:41:23.169Z,96291.22
2023-03-06T18:43:56.429Z,96286.09
2023-03-06T18:46:27.632Z,96292.09
2023-03-06T18:48:58.395Z,96292.94
2023-03-06T18:51:29.722Z,96304.09
2023-03-06T18:54:02.565Z,96309.19
2023-03-06T18:56:33.368Z,96301.50
2023-03-06T18:59:05.586Z,96304.94
2023-03-06T19:01:36.207Z,96317.69
2023-03-06T19:04:06.749Z,96322.81
2023-03-06T19:06:35.815Z,96324.53
2023-03-06T19:09:11.573Z,96319.41
2023-03-06T19:11:43.307Z,96330.56
2023-03-06T19:14:13.475Z,96334.91
2023-03-06T19:16:42.665Z,96334.91
2023-03-06T19:19:12.546Z,96332.28
2023-03-06T19:21:42.600Z,96341.59
2023-03-06T19:24:14.770Z,96342.47
2023-03-06T19:26:44.554Z,96336.56
2023-03-06T19:29:15.559Z,96344.28
2023-03-06T19:31:48.284Z,96337.34
2023-03-06T19:34:18.400Z,96337.41
2023-03-06T19:36:48.133Z,96342.53
2023-03-06T19:39:19.652Z,96340.91
2023-03-06T19:41:54.276Z,96334.06
2023-03-06T19:44:25.774Z,96348.56
2023-03-06T19:46:56.592Z,96349.41
2023-03-06T19:49:26.866Z,96352.00
2023-03-06T19:51:57.044Z,96351.13
2023-03-06T19:54:30.829Z,96346.88
2023-03-06T19:57:03.706Z,96355.41
2023-03-06T19:59:33.543Z,96349.44
2023-03-06T20:02:05.308Z,96346.81
2023-03-06T20:04:36.649Z,96352.00
2023-03-06T20:07:07.865Z,96354.53
2023-03-06T20:09:39.882Z,96359.66
2023-03-06T20:12:09.866Z,96349.41
2023-03-06T20:14:39.968Z,96353.63
2023-03-06T20:17:11.402Z,96356.25
2023-03-06T20:19:43.137Z,96362.19
2023-03-06T20:22:16.525Z,96368.22
2023-03-06T20:24:50.065Z,96366.53
2023-03-06T20:27:20.259Z,96381.88
2023-03-06T20:29:50.177Z,96378.44
2023-03-06T20:32:20.192Z,96392.13
2023-03-06T20:34:50.077Z,96393.81
2023-03-06T20:37:21.917Z,96376.72
2023-03-06T20:39:53.995Z,96385.28
2023-03-06T20:42:24.055Z,96386.97
2023-03-06T20:44:53.863Z,96394.69
2023-03-06T20:47:25.965Z,96391.25
2023-03-06T20:49:57.038Z,96399.78
2023-03-06T20:52:26.394Z,96386.16
2023-03-06T20:54:57.376Z,96396.38
2023-03-06T20:57:26.694Z,96383.56
2023-03-06T20:59:57.216Z,96388.69
2023-03-06T21:02:27.051Z,96391.25
2023-03-06T21:04:56.174Z,96392.09
2023-03-06T21:07:29.860Z,96389.56
2023-03-06T21:10:00.954Z,96387.00
2023-03-06T21:12:30.144Z,96390.38
2023-03-06T21:14:59.140Z,96392.94
2023-03-06T21:17:33.863Z,96394.66
2023-03-06T21:20:02.410Z,96395.53
2023-03-06T21:22:31.564Z,96404.91
2023-03-06T21:25:04.900Z,96404.03
2023-03-06T21:27:35.008Z,96395.50
2023-03-06T21:30:07.112Z,96389.56
2023-03-06T21:32:35.751Z,96390.34
2023-03-06T21:35:04.127Z,96396.34
2023-03-06T21:37:32.998Z,96390.41
2023-03-06T21:40:06.581Z,96387.78
2023-03-06T21:42:36.758Z,96394.63
2023-03-06T21:45:05.596Z,96394.63
2023-03-06T21:47:38.871Z,96391.19
2023-03-06T21:50:09.820Z,96394.56
2023-03-06T21:52:38.390Z,96398.84
2023-03-06T21:55:10.251Z,96395.44
2023-03-06T21:57:38.769Z,96393.72
2023-03-06T22:00:09.168Z,96395.44
2023-03-06T22:02:38.858Z,96386.91
2023-03-06T22:05:07.449Z,96394.59
2023-03-06T22:07:37.778Z,96393.75
2023-03-06T22:10:09.616Z,96398.03
2023-03-06T22:12:38.054Z,96400.59
2023-03-06T22:15:07.415Z,96399.75
2023-03-06T22:17:35.753Z,96397.19
2023-03-06T22:20:04.529Z,96399.72
2023-03-06T22:22:33.064Z,96398.00
2023-03-06T22:25:01.317Z,96400.56
2023-03-06T22:27:31.771Z,96398.88
2023-03-06T22:30:00.133Z,96401.44
2023-03-06T22:32:28.448Z,96400.63
2023-03-06T22:34:56.861Z,96396.31
2023-03-06T22:37:25.509Z,96399.75
2023-03-06T22:39:53.807Z,96404.88
2023-03-06T22:42:22.082Z,96389.50
2023-03-06T22:44:51.735Z,96383.53
2023-03-06T22:47:20.025Z,96382.69
2023-03-06T22:49:48.355Z,96381.81
2023-03-06T22:52:19.606Z,96390.34
2023-03-06T22:54:47.898Z,96398.03
2023-03-06T22:57:16.173Z,96386.94
2023-03-06T22:59:44.579Z,96385.22
2023-03-06T23:02:14.298Z,96380.94
2023-03-06T23:04:42.613Z,96384.38
2023-03-06T23:07:10.942Z,96390.34
2023-03-06T23:09:39.283Z,96389.47
2023-03-06T23:12:26.021Z,96400.53
2023-03-06T23:15:13.391Z,96409.09
2023-03-06T23:18:01.501Z,96420.22
2023-03-06T23:20:48.479Z,96420.22
2023-03-06T23:23:35.424Z,96424.44
2023-03-06T23:26:05.355Z,96426.16
2023-03-06T23:28:34.930Z,96421.91
2023-03-06T23:31:08.015Z,96423.59
2023-03-06T23:33:38.889Z,96421.03
2023-03-06T23:36:09.558Z,96421.00
2023-03-06T23:38:38.297Z,96416.72
2023-03-06T23:41:07.972Z,96416.69
2023-03-06T23:43:36.564Z,96420.94
2023-03-06T23:46:05.264Z,96432.00
2023-03-06T23:48:33.735Z,96422.59
2023-03-06T23:51:06.551Z,96426.84
2023-03-06T23:53:36.594Z,96428.44
2023-03-06T23:56:06.362Z,96425.00
2023-03-06T23:58:35.040Z,96421.56
